createdAt,value
2023-05-15T00:00:01.632Z,13.83
2023-05-15T00:02:29.266Z,13.13
2023-05-15T00:04:58.248Z,11.77
2023-05-15T00:07:25.791Z,14.82
2023-05-15T00:09:54.693Z,15.85
2023-05-15T00:12:22.286Z,17.23
2023-05-15T00:14:49.827Z,13.95
2023-05-15T00:17:17.441Z,12.02
2023-05-15T00:19:45.059Z,10.02
2023-05-15T00:22:13.385Z,6.40
2023-05-15T00:24:41.871Z,5.10
2023-05-15T00:27:11.520Z,4.95
2023-05-15T00:29:39.023Z,5.00
2023-05-15T00:32:06.943Z,3.30
2023-05-15T00:34:34.624Z,3.97
2023-05-15T00:37:02.257Z,4.00
2023-05-15T00:39:29.922Z,4.70
2023-05-15T00:42:00.078Z,4.63
2023-05-15T00:44:30.926Z,4.35
2023-05-15T00:46:59.877Z,4.68
2023-05-15T00:49:28.131Z,3.57
2023-05-15T00:51:56.352Z,4.80
2023-05-15T00:54:24.052Z,4.63
2023-05-15T00:56:51.897Z,4.40
2023-05-15T00:59:20.039Z,4.50
2023-05-15T01:01:49.597Z,3.80
2023-05-15T01:04:17.598Z,4.65
2023-05-15T01:06:45.226Z,4.32
2023-05-15T01:09:14.029Z,4.38
2023-05-15T01:11:42.941Z,4.85
2023-05-15T01:14:10.669Z,4.30
2023-05-15T01:16:39.035Z,5.28
2023-05-15T01:19:08.085Z,7.00
2023-05-15T01:21:57.422Z,5.10
2023-05-15T01:24:35.218Z,6.03
2023-05-15T01:27:23.802Z,4.77
2023-05-15T01:29:57.018Z,6.22
2023-05-15T01:32:26.328Z,8.88
2023-05-15T01:34:58.367Z,6.75
2023-05-15T01:37:27.225Z,7.10
2023-05-15T01:39:56.075Z,5.80
2023-05-15T01:42:25.961Z,4.53
2023-05-15T01:44:56.196Z,4.85
2023-05-15T01:47:33.026Z,6.55
2023-05-15T01:50:02.868Z,5.97
2023-05-15T01:52:31.806Z,6.03
2023-05-15T01:54:59.632Z,7.70
2023-05-15T01:57:28.042Z,8.07
2023-05-15T01:59:58.597Z,9.05
2023-05-15T02:02:26.748Z,9.77
2023-05-15T02:04:55.989Z,8.73
2023-05-15T02:07:24.061Z,10.65
2023-05-15T02:09:52.309Z,6.15
2023-05-15T02:12:20.668Z,6.97
2023-05-15T02:14:49.631Z,7.07
2023-05-15T02:17:19.028Z,8.97
2023-05-15T02:19:47.085Z,6.25
2023-05-15T02:22:15.832Z,6.97
2023-05-15T02:24:43.365Z,4.50
2023-05-15T02:27:13.452Z,9.73
2023-05-15T02:29:47.133Z,8.80
2023-05-15T02:32:16.259Z,5.65
2023-05-15T02:34:48.370Z,8.13
2023-05-15T02:37:18.171Z,4.38
2023-05-15T02:39:47.060Z,5.78
2023-05-15T02:42:15.434Z,4.33
2023-05-15T02:44:43.566Z,5.72
2023-05-15T02:47:11.374Z,5.22
2023-05-15T02:49:39.386Z,11.52
2023-05-15T02:52:08.425Z,4.55
2023-05-15T02:54:36.001Z,7.53
2023-05-15T02:57:03.546Z,4.07
2023-05-15T02:59:31.196Z,8.45
2023-05-15T03:01:59.003Z,5.55
2023-05-15T03:04:26.661Z,5.10
2023-05-15T03:06:54.229Z,7.07
2023-05-15T03:09:23.094Z,6.32
2023-05-15T03:11:50.682Z,4.90
2023-05-15T03:14:18.304Z,5.43
2023-05-15T03:16:45.896Z,2.78
2023-05-15T03:19:13.515Z,3.33
2023-05-15T03:21:41.190Z,6.20
2023-05-15T03:24:08.699Z,6.88
2023-05-15T03:26:37.573Z,2.25
2023-05-15T03:29:05.162Z,6.55
2023-05-15T03:31:32.813Z,4.37
2023-05-15T03:34:00.440Z,6.57
2023-05-15T03:36:28.084Z,7.18
2023-05-15T03:38:56.819Z,6.22
2023-05-15T03:41:26.069Z,7.72
2023-05-15T03:43:55.091Z,11.73
2023-05-15T03:46:22.652Z,5.75
2023-05-15T03:48:50.499Z,3.20
2023-05-15T03:51:18.187Z,5.57
2023-05-15T03:53:45.989Z,6.60
2023-05-15T03:56:13.524Z,6.37
2023-05-15T03:58:45.749Z,6.78
2023-05-15T04:01:14.709Z,6.70
2023-05-15T04:03:44.788Z,6.07
2023-05-15T04:06:12.472Z,6.10
2023-05-15T04:08:41.571Z,5.70
2023-05-15T04:11:09.223Z,6.30
2023-05-15T04:13:36.804Z,4.43
2023-05-15T04:16:05.064Z,4.22
2023-05-15T04:18:34.042Z,4.63
2023-05-15T04:21:01.637Z,8.57
2023-05-15T04:23:29.190Z,4.35
2023-05-15T04:25:56.949Z,9.15
2023-05-15T04:28:24.579Z,7.43
2023-05-15T04:30:52.202Z,7.55
2023-05-15T04:33:19.709Z,8.13
2023-05-15T04:35:49.097Z,5.15
2023-05-15T04:38:16.998Z,4.78
2023-05-15T04:40:44.922Z,3.95
2023-05-15T04:43:12.486Z,3.35
2023-05-15T04:45:40.198Z,4.03
2023-05-15T04:48:07.736Z,5.53
2023-05-15T04:50:36.839Z,4.20
2023-05-15T04:53:06.544Z,2.78
2023-05-15T04:55:34.021Z,5.75
2023-05-15T04:58:05.734Z,3.03
2023-05-15T05:00:33.348Z,2.90
2023-05-15T05:03:02.277Z,11.32
2023-05-15T05:05:29.905Z,8.93
2023-05-15T05:07:57.471Z,3.80
2023-05-15T05:10:26.404Z,4.93
2023-05-15T05:12:53.950Z,4.03
2023-05-15T05:15:21.478Z,4.40
2023-05-15T05:17:49.053Z,3.67
2023-05-15T05:20:17.144Z,4.28
2023-05-15T05:22:44.719Z,5.73
2023-05-15T05:25:12.252Z,7.10
2023-05-15T05:27:41.204Z,4.47
2023-05-15T05:30:12.336Z,3.75
2023-05-15T05:32:39.933Z,5.57
2023-05-15T05:35:07.750Z,5.33
2023-05-15T05:37:36.054Z,3.00
2023-05-15T05:40:06.446Z,2.13
2023-05-15T05:42:34.095Z,3.35
2023-05-15T05:45:03.118Z,5.03
2023-05-15T05:47:30.881Z,7.90
2023-05-15T05:50:01.509Z,4.20
2023-05-15T05:52:29.340Z,7.95
2023-05-15T05:54:57.786Z,7.75
2023-05-15T05:57:25.358Z,2.88
2023-05-15T05:59:52.876Z,4.90
2023-05-15T06:02:21.770Z,6.93
2023-05-15T06:04:49.408Z,4.93
2023-05-15T06:07:17.183Z,3.83
2023-05-15T06:09:46.006Z,8.88
2023-05-15T06:12:13.659Z,5.73
2023-05-15T06:14:41.273Z,8.85
2023-05-15T06:17:08.845Z,5.93
2023-05-15T06:19:37.931Z,5.60
2023-05-15T06:22:08.613Z,6.85
2023-05-15T06:24:36.344Z,6.20
2023-05-15T06:27:04.128Z,4.03
2023-05-15T06:29:31.845Z,4.22
2023-05-15T06:31:59.456Z,3.95
2023-05-15T06:34:27.125Z,3.50
2023-05-15T06:36:55.981Z,4.17
2023-05-15T06:39:23.542Z,3.38
2023-05-15T06:41:51.221Z,6.32
2023-05-15T06:44:20.492Z,6.38
2023-05-15T06:46:48.134Z,8.80
2023-05-15T06:49:15.873Z,9.00
2023-05-15T06:51:48.281Z,4.78
2023-05-15T06:54:17.194Z,8.80
2023-05-15T06:56:44.775Z,10.93
2023-05-15T06:59:12.332Z,8.05
2023-05-15T07:01:40.051Z,10.43
2023-05-15T07:04:07.951Z,6.88
2023-05-15T07:06:36.362Z,7.35
2023-05-15T07:09:05.241Z,8.32
2023-05-15T07:11:37.301Z,4.65
2023-05-15T07:14:04.853Z,5.13
2023-05-15T07:16:32.419Z,4.28
2023-05-15T07:19:00.051Z,4.45
2023-05-15T07:21:27.832Z,5.85
2023-05-15T07:23:55.370Z,5.75
2023-05-15T07:26:34.217Z,6.27
2023-05-15T07:29:05.520Z,9.13
2023-05-15T07:31:33.607Z,4.60
2023-05-15T07:34:01.173Z,7.18
2023-05-15T07:36:29.707Z,7.63
2023-05-15T07:38:57.306Z,3.47
2023-05-15T07:41:24.854Z,4.43
2023-05-15T07:43:52.418Z,5.47
2023-05-15T07:46:21.639Z,8.57
2023-05-15T07:48:49.279Z,7.97
2023-05-15T07:51:16.990Z,6.10
2023-05-15T07:53:44.510Z,4.30
2023-05-15T07:56:11.977Z,3.70
2023-05-15T07:58:40.324Z,4.63
2023-05-15T08:01:07.906Z,6.63
2023-05-15T08:03:37.129Z,7.83
2023-05-15T08:06:05.061Z,3.70
2023-05-15T08:08:32.590Z,9.20
2023-05-15T08:11:00.170Z,4.95
2023-05-15T08:13:28.752Z,2.53
2023-05-15T08:15:56.636Z,4.73
2023-05-15T08:18:24.256Z,4.57
2023-05-15T08:20:53.497Z,5.72
2023-05-15T08:23:21.130Z,10.70
2023-05-15T08:25:48.685Z,4.13
2023-05-15T08:28:16.265Z,4.13
2023-05-15T08:30:43.789Z,6.38
2023-05-15T08:33:11.323Z,3.20
2023-05-15T08:35:38.932Z,7.90
2023-05-15T08:38:07.805Z,4.38
2023-05-15T08:40:39.905Z,5.33
2023-05-15T08:43:14.336Z,3.85
2023-05-15T08:45:42.219Z,6.15
2023-05-15T08:48:11.698Z,4.55
2023-05-15T08:50:40.332Z,4.50
2023-05-15T08:53:09.623Z,6.53
2023-05-15T08:55:37.312Z,5.63
2023-05-15T08:58:05.101Z,4.55
2023-05-15T09:00:32.910Z,4.50
2023-05-15T09:03:02.618Z,10.60
2023-05-15T09:05:30.799Z,3.20
2023-05-15T09:08:01.992Z,4.82
2023-05-15T09:10:31.619Z,4.93
2023-05-15T09:13:00.542Z,6.45
2023-05-15T09:15:28.901Z,7.55
2023-05-15T09:17:57.240Z,4.37
2023-05-15T09:20:30.357Z,2.58
2023-05-15T09:22:58.476Z,5.15
2023-05-15T09:25:38.525Z,5.03
2023-05-15T09:28:06.683Z,6.05
2023-05-15T09:30:34.765Z,5.77
2023-05-15T09:33:03.863Z,5.68
2023-05-15T09:35:35.093Z,6.68
2023-05-15T09:38:03.136Z,4.72
2023-05-15T09:40:31.601Z,3.58
2023-05-15T09:43:00.814Z,5.27
2023-05-15T09:45:30.105Z,2.70
2023-05-15T09:47:58.379Z,3.42
2023-05-15T09:50:33.176Z,4.53
2023-05-15T09:53:01.249Z,3.15
2023-05-15T09:55:29.483Z,6.87
2023-05-15T09:58:10.458Z,5.00
2023-05-15T10:00:48.307Z,7.80
2023-05-15T10:03:18.510Z,4.45
2023-05-15T10:05:46.236Z,5.28
2023-05-15T10:08:14.972Z,2.13
2023-05-15T10:10:43.298Z,5.30
2023-05-15T10:13:12.622Z,4.50
2023-05-15T10:15:40.445Z,5.35
2023-05-15T10:18:08.787Z,3.45
2023-05-15T10:20:36.903Z,2.90
2023-05-15T10:23:05.829Z,2.42
2023-05-15T10:25:39.873Z,4.65
2023-05-15T10:28:09.787Z,2.85
2023-05-15T10:30:40.025Z,3.83
2023-05-15T10:33:08.284Z,3.70
2023-05-15T10:35:36.358Z,5.40
2023-05-15T10:38:05.950Z,5.93
2023-05-15T10:40:34.001Z,3.10
2023-05-15T10:43:02.554Z,6.10
2023-05-15T10:45:30.889Z,5.03
2023-05-15T10:48:00.041Z,4.25
2023-05-15T10:50:28.142Z,4.00
2023-05-15T10:52:56.287Z,3.45
2023-05-15T10:55:24.432Z,4.78
2023-05-15T10:57:52.250Z,3.23
2023-05-15T11:00:31.235Z,4.25
2023-05-15T11:03:03.720Z,7.30
2023-05-15T11:05:51.816Z,3.28
2023-05-15T11:08:29.915Z,4.82
2023-05-15T11:10:57.550Z,5.30
2023-05-15T11:13:25.285Z,5.32
2023-05-15T11:15:53.338Z,3.47
2023-05-15T11:18:21.476Z,7.88
2023-05-15T11:21:08.716Z,3.47
2023-05-15T11:23:42.908Z,3.53
2023-05-15T11:26:10.639Z,3.03
2023-05-15T11:28:44.849Z,3.03
2023-05-15T11:31:12.580Z,4.22
2023-05-15T11:33:41.006Z,4.13
2023-05-15T11:36:09.077Z,6.57
2023-05-15T11:38:41.222Z,3.05
2023-05-15T11:41:18.836Z,4.93
2023-05-15T11:43:47.816Z,4.68
2023-05-15T11:46:16.016Z,3.72
2023-05-15T11:48:44.300Z,3.17
2023-05-15T11:51:17.184Z,4.07
2023-05-15T11:53:46.942Z,3.05
2023-05-15T11:56:18.127Z,4.10
2023-05-15T11:58:46.050Z,4.35
2023-05-15T12:01:13.620Z,3.93
2023-05-15T12:03:41.378Z,2.90
2023-05-15T12:06:09.315Z,5.80
2023-05-15T12:08:37.654Z,3.95
2023-05-15T12:11:08.396Z,4.38
2023-05-15T12:13:36.024Z,2.70
2023-05-15T12:16:04.498Z,3.72
2023-05-15T12:18:32.886Z,3.72
2023-05-15T12:21:00.905Z,2.72
2023-05-15T12:23:28.672Z,3.00
2023-05-15T12:26:01.303Z,3.87
2023-05-15T12:28:31.789Z,3.63
2023-05-15T12:31:00.489Z,3.97
2023-05-15T12:33:28.070Z,2.83
2023-05-15T12:36:01.153Z,4.13
2023-05-15T12:38:29.531Z,4.27
2023-05-15T12:40:57.957Z,2.08
2023-05-15T12:43:26.228Z,5.10
2023-05-15T12:46:02.211Z,3.03
2023-05-15T12:48:33.316Z,3.25
2023-05-15T12:51:05.620Z,3.30
2023-05-15T12:53:34.127Z,3.67
2023-05-15T12:56:01.894Z,2.85
2023-05-15T12:58:29.545Z,4.03
2023-05-15T13:00:58.965Z,3.28
2023-05-15T13:03:27.959Z,3.83
2023-05-15T13:05:55.769Z,3.35
2023-05-15T13:08:23.427Z,5.03
2023-05-15T13:10:57.255Z,3.13
2023-05-15T13:13:24.903Z,3.47
2023-05-15T13:15:52.536Z,2.90
2023-05-15T13:18:21.454Z,1.95
2023-05-15T13:20:49.648Z,3.15
2023-05-15T13:23:17.939Z,4.45
2023-05-15T13:25:48.214Z,4.05
2023-05-15T13:28:16.809Z,3.33
2023-05-15T13:30:44.521Z,4.28
2023-05-15T13:33:14.286Z,3.10
2023-05-15T13:35:43.991Z,2.35
2023-05-15T13:38:13.185Z,3.17
2023-05-15T13:40:40.907Z,4.43
2023-05-15T13:43:08.423Z,4.95
2023-05-15T13:45:36.413Z,4.15
2023-05-15T13:48:04.315Z,5.00
2023-05-15T13:50:31.989Z,2.95
2023-05-15T13:53:00.967Z,2.50
2023-05-15T13:55:28.638Z,4.38
2023-05-15T13:58:01.841Z,3.40
2023-05-15T14:00:29.422Z,3.10
2023-05-15T14:02:57.226Z,4.90
2023-05-15T14:05:24.826Z,2.67
2023-05-15T14:07:52.422Z,3.47
2023-05-15T14:10:21.287Z,2.90
2023-05-15T14:12:48.863Z,4.95
2023-05-15T14:15:16.436Z,3.13
2023-05-15T14:17:44.112Z,6.57
2023-05-15T14:20:12.443Z,2.97
2023-05-15T14:22:40.293Z,4.72
2023-05-15T14:25:09.466Z,2.75
2023-05-15T14:27:38.453Z,4.38
2023-05-15T14:30:07.672Z,2.00
2023-05-15T14:32:35.365Z,3.85
2023-05-15T14:35:04.786Z,2.65
2023-05-15T14:37:32.357Z,4.95
2023-05-15T14:40:00.059Z,4.60
2023-05-15T14:42:28.113Z,2.90
2023-05-15T14:44:57.111Z,4.75
2023-05-15T14:47:25.334Z,4.25
2023-05-15T14:49:56.002Z,3.67
2023-05-15T14:52:23.606Z,4.93
2023-05-15T14:55:04.821Z,2.43
2023-05-15T14:57:36.658Z,2.63
2023-05-15T15:00:06.612Z,2.05
2023-05-15T15:02:34.843Z,4.72
2023-05-15T15:05:04.274Z,4.53
2023-05-15T15:07:31.877Z,4.00
2023-05-15T15:09:59.418Z,2.58
2023-05-15T15:12:27.689Z,3.08
2023-05-15T15:14:55.383Z,3.53
2023-05-15T15:17:24.288Z,3.05
2023-05-15T15:19:52.046Z,5.17
2023-05-15T15:22:19.787Z,2.17
2023-05-15T15:24:47.277Z,2.22
2023-05-15T15:27:14.934Z,4.47
2023-05-15T15:29:42.517Z,5.07
2023-05-15T15:32:10.163Z,2.50
2023-05-15T15:34:39.157Z,2.30
2023-05-15T15:37:06.860Z,6.13
2023-05-15T15:39:34.377Z,3.03
2023-05-15T15:42:03.446Z,2.13
2023-05-15T15:44:34.269Z,4.13
2023-05-15T15:47:01.947Z,3.03
2023-05-15T15:52:15.990Z,3.20
2023-05-15T15:54:47.092Z,1.92
2023-05-15T15:57:14.854Z,3.23
2023-05-15T15:59:43.236Z,2.42
2023-05-15T16:02:11.225Z,2.72
2023-05-15T16:04:40.707Z,3.65
2023-05-15T16:07:10.004Z,3.65
2023-05-15T16:09:39.203Z,5.63
2023-05-15T16:12:07.503Z,4.28
2023-05-15T16:14:35.632Z,3.10
2023-05-15T16:17:06.228Z,3.10
2023-05-15T16:19:34.961Z,2.25
2023-05-15T16:22:02.752Z,3.90
2023-05-15T16:24:31.681Z,2.75
2023-05-15T16:27:00.511Z,3.20
2023-05-15T16:29:28.775Z,3.72
2023-05-15T16:31:57.229Z,4.10
2023-05-15T16:34:25.031Z,2.93
2023-05-15T16:36:52.637Z,2.42
2023-05-15T16:39:20.560Z,3.33
2023-05-15T16:41:48.344Z,2.88
2023-05-15T16:44:19.212Z,2.88
2023-05-15T16:46:47.607Z,3.83
2023-05-15T16:49:15.164Z,2.72
2023-05-15T16:51:46.568Z,4.32
2023-05-15T16:54:14.407Z,2.28
2023-05-15T16:56:41.951Z,7.00
2023-05-15T16:59:09.472Z,6.13
2023-05-15T17:01:38.664Z,3.47
2023-05-15T17:04:06.399Z,3.78
2023-05-15T17:06:33.967Z,2.05
2023-05-15T17:09:02.043Z,3.05
2023-05-15T17:11:30.061Z,3.53
2023-05-15T17:13:57.650Z,2.92
2023-05-15T17:16:25.663Z,2.60
2023-05-15T17:18:55.102Z,5.45
2023-05-15T17:21:22.944Z,3.05
2023-05-15T17:23:51.775Z,3.70
2023-05-15T17:26:19.582Z,3.28
2023-05-15T17:28:47.258Z,3.17
2023-05-15T17:31:14.900Z,3.70
2023-05-15T17:33:44.909Z,4.82
2023-05-15T17:36:14.629Z,4.43
2023-05-15T17:38:42.387Z,5.57
2023-05-15T17:41:09.922Z,5.18
2023-05-15T17:43:37.415Z,3.95
2023-05-15T17:46:05.670Z,7.32
2023-05-15T17:48:33.837Z,3.27
2023-05-15T17:51:01.602Z,2.53
2023-05-15T17:53:30.571Z,4.55
2023-05-15T17:55:58.354Z,3.10
2023-05-15T17:58:26.045Z,3.83
2023-05-15T18:00:53.972Z,3.27
2023-05-15T18:03:21.807Z,2.78
2023-05-15T18:05:49.376Z,3.45
2023-05-15T18:08:17.386Z,2.83
2023-05-15T18:10:47.259Z,2.92
2023-05-15T18:13:14.758Z,5.53
2023-05-15T18:15:42.354Z,4.43
2023-05-15T18:18:09.935Z,6.88
2023-05-15T18:20:37.500Z,3.03
2023-05-15T18:23:05.217Z,2.53
2023-05-15T18:25:36.734Z,5.40
2023-05-15T18:28:05.635Z,4.28
2023-05-15T18:30:35.377Z,5.10
2023-05-15T18:33:03.106Z,4.80
2023-05-15T18:35:30.814Z,3.65
2023-05-15T18:37:58.564Z,3.93
2023-05-15T18:40:26.547Z,3.95
2023-05-15T18:42:55.241Z,2.58
2023-05-15T18:45:24.734Z,4.68
2023-05-15T18:47:55.033Z,2.63
2023-05-15T18:50:24.886Z,3.80
2023-05-15T18:52:52.811Z,2.38
2023-05-15T18:55:21.653Z,2.08
2023-05-15T18:57:49.337Z,2.75
2023-05-15T19:00:26.718Z,5.50
2023-05-15T19:03:04.238Z,2.27
2023-05-15T19:05:34.307Z,4.18
2023-05-15T19:08:02.255Z,4.20
2023-05-15T19:10:30.603Z,9.38
2023-05-15T19:12:58.356Z,4.93
2023-05-15T19:15:26.165Z,7.47
2023-05-15T19:17:53.810Z,23.15
2023-05-15T19:20:22.874Z,27.13
2023-05-15T19:22:50.637Z,25.23
2023-05-15T19:25:18.746Z,22.90
2023-05-15T19:27:46.568Z,24.03
2023-05-15T19:30:15.838Z,15.95
2023-05-15T19:32:43.544Z,11.93
2023-05-15T19:35:11.263Z,11.20
2023-05-15T19:37:40.182Z,8.32
2023-05-15T19:40:08.702Z,11.87
2023-05-15T19:42:36.361Z,10.98
2023-05-15T19:45:05.561Z,13.70
2023-05-15T19:47:33.219Z,12.43
2023-05-15T19:50:00.821Z,11.70
2023-05-15T19:52:28.392Z,10.27
2023-05-15T19:55:00.710Z,10.73
2023-05-15T19:57:28.318Z,9.23
2023-05-15T19:59:55.845Z,8.82
2023-05-15T20:02:23.619Z,11.25
2023-05-15T20:04:51.781Z,8.17
2023-05-15T20:07:19.357Z,8.93
2023-05-15T20:09:47.376Z,6.88
2023-05-15T20:12:16.404Z,8.15
2023-05-15T20:14:49.148Z,6.70
2023-05-15T20:17:16.936Z,7.30
2023-05-15T20:19:44.583Z,5.78
2023-05-15T20:22:12.110Z,6.30
2023-05-15T20:24:40.072Z,6.15
2023-05-15T20:27:08.016Z,6.15
2023-05-15T20:29:37.115Z,6.00
2023-05-15T20:32:04.811Z,4.03
2023-05-15T20:34:32.908Z,5.10
2023-05-15T20:37:01.962Z,4.95
2023-05-15T20:39:30.034Z,3.63
2023-05-15T20:41:57.661Z,3.80
2023-05-15T20:44:25.268Z,5.20
2023-05-15T20:46:56.776Z,3.33
2023-05-15T20:49:24.414Z,5.10
2023-05-15T20:51:51.929Z,6.90
2023-05-15T20:54:19.500Z,3.50
2023-05-15T20:56:47.104Z,6.72
2023-05-15T20:59:14.697Z,5.07
2023-05-15T21:01:47.197Z,5.43
2023-05-15T21:04:17.863Z,4.72
2023-05-15T21:06:45.887Z,4.70
2023-05-15T21:09:15.508Z,5.13
2023-05-15T21:11:43.046Z,4.38
2023-05-15T21:14:10.605Z,8.30
2023-05-15T21:16:38.322Z,5.10
2023-05-15T21:19:05.939Z,3.73
2023-05-15T21:21:35.329Z,6.72
2023-05-15T21:24:03.619Z,3.47
2023-05-15T21:26:31.416Z,7.45
2023-05-15T21:28:59.579Z,6.68
2023-05-15T21:31:27.435Z,7.00
2023-05-15T21:33:55.433Z,4.63
2023-05-15T21:36:23.024Z,4.70
2023-05-15T21:38:52.083Z,8.10
2023-05-15T21:41:19.610Z,5.43
2023-05-15T21:43:47.283Z,3.93
2023-05-15T21:46:17.034Z,4.63
2023-05-15T21:48:44.750Z,7.15
2023-05-15T21:51:12.328Z,4.50
2023-05-15T21:53:39.982Z,4.05
2023-05-15T21:56:09.302Z,4.17
2023-05-15T21:58:36.836Z,4.00
2023-05-15T22:01:04.426Z,2.55
2023-05-15T22:03:32.123Z,8.98
2023-05-15T22:05:59.835Z,3.75
2023-05-15T22:08:27.630Z,2.87
2023-05-15T22:10:55.688Z,4.15
2023-05-15T22:13:26.080Z,3.17
2023-05-15T22:15:53.850Z,3.45
2023-05-15T22:18:21.647Z,5.20
2023-05-15T22:20:50.525Z,4.53
2023-05-15T22:23:18.305Z,2.60
2023-05-15T22:25:46.262Z,4.95
2023-05-15T22:28:13.839Z,5.70
2023-05-15T22:30:42.851Z,4.20
2023-05-15T22:33:10.631Z,2.80
2023-05-15T22:35:41.814Z,4.85
2023-05-15T22:38:09.704Z,3.35
2023-05-15T22:40:37.450Z,5.15
2023-05-15T22:43:05.133Z,6.10
2023-05-15T22:45:33.496Z,4.60
2023-05-15T22:48:02.596Z,4.80
2023-05-15T22:50:30.258Z,4.75
2023-05-15T22:52:58.002Z,1.55
2023-05-15T22:55:25.604Z,2.33
2023-05-15T22:57:53.269Z,3.80
2023-05-15T23:00:21.404Z,2.78
2023-05-15T23:02:49.117Z,5.40
2023-05-15T23:05:18.156Z,7.10
2023-05-15T23:08:29.951Z,2.35
2023-05-15T23:10:57.653Z,3.33
2023-05-15T23:13:25.390Z,5.40
2023-05-15T23:15:53.243Z,3.55
2023-05-15T23:18:21.243Z,5.55
2023-05-15T23:20:50.474Z,3.60
2023-05-15T23:23:19.201Z,7.63
2023-05-15T23:25:46.979Z,6.20
2023-05-15T23:28:14.561Z,3.28
2023-05-15T23:30:42.169Z,3.60
2023-05-15T23:33:10.079Z,3.10
2023-05-15T23:35:37.757Z,5.37
2023-05-15T23:38:06.862Z,2.70
2023-05-15T23:40:35.546Z,7.28
2023-05-15T23:43:03.137Z,2.72
2023-05-15T23:45:30.757Z,5.43
2023-05-15T23:47:58.516Z,5.00
2023-05-15T23:50:26.284Z,6.70
2023-05-15T23:52:54.137Z,4.80
2023-05-15T23:55:23.221Z,4.82
2023-05-15T23:57:50.815Z,5.47
